Time;durP1;ratioP1;P1;durP2;ratioP2;P2;SDS_P1;SDS_P2;PMS_P1;PMS_P2;Temp;Humidity;BMP_temperature;BMP_pressure;BME280_temperature;BME280_humidity;BME280_pressure;Samples;Min_cycle;Max_cycle;Signal;HPM_P1;HPM_P2
2023/02/14 00:02:10;;;;;;;45.00;21.42;;;6.90;99.90;;;;;;4993215;28;20116;-74
2023/02/14 00:04:42;;;;;;;47.90;22.95;;;6.80;99.90;;;;;;4992105;28;20046;-74
2023/02/14 00:07:09;;;;;;;49.78;23.38;;;6.80;99.90;;;;;;4973893;28;20026;-74
2023/02/14 00:09:36;;;;;;;48.22;22.83;;;6.90;99.90;;;;;;4996100;28;20148;-74
2023/02/14 00:12:08;;;;;;;50.72;24.20;;;6.80;99.90;;;;;;4990719;28;20521;-74
2023/02/14 00:17:19;;;;;;;47.15;22.98;;;6.90;99.90;;;;;;4993271;28;20034;-74
2023/02/14 00:19:44;;;;;;;49.03;22.55;;;6.90;99.90;;;;;;4974548;28;20038;-74
2023/02/14 00:22:10;;;;;;;48.97;24.83;;;6.90;99.90;;;;;;4980615;28;20058;-74
2023/02/14 00:24:36;;;;;;;50.72;24.35;;;6.80;99.90;;;;;;4991948;28;20033;-74
2023/02/14 00:27:01;;;;;;;49.22;22.35;;;6.80;99.90;;;;;;4993985;28;20062;-74
2023/02/14 00:29:30;;;;;;;52.70;24.00;;;6.80;99.90;;;;;;4995013;28;20037;-74
2023/02/14 00:31:56;;;;;;;47.58;23.73;;;6.80;99.90;;;;;;4979125;28;20060;-74
2023/02/14 00:34:22;;;;;;;50.88;24.40;;;6.80;99.90;;;;;;4996953;28;20034;-73
2023/02/14 00:36:48;;;;;;;46.33;23.27;;;6.80;99.90;;;;;;4995894;28;20045;-74
2023/02/14 00:39:14;;;;;;;50.00;23.45;;;6.80;99.90;;;;;;4981802;28;20410;-74
2023/02/14 00:41:41;;;;;;;53.08;23.67;;;6.70;99.90;;;;;;4980980;28;20026;-74
2023/02/14 00:44:08;;;;;;;48.65;23.02;;;6.80;99.90;;;;;;4964283;28;20042;-74
2023/02/14 00:46:34;;;;;;;46.08;23.05;;;6.70;99.90;;;;;;4976929;28;20065;-74
2023/02/14 00:49:00;;;;;;;48.05;22.30;;;6.60;99.90;;;;;;4978982;28;20035;-74
2023/02/14 00:51:26;;;;;;;45.80;22.52;;;6.60;99.90;;;;;;4997010;28;20038;-74
2023/02/14 00:53:52;;;;;;;45.50;22.00;;;6.60;99.90;;;;;;4999846;28;20084;-74
2023/02/14 00:56:18;;;;;;;45.50;21.02;;;6.70;99.90;;;;;;4998246;28;20030;-74
2023/02/14 00:58:44;;;;;;;44.33;21.63;;;6.70;99.90;;;;;;4963492;28;20839;-74
2023/02/14 01:01:11;;;;;;;48.05;20.98;;;6.60;99.90;;;;;;4997619;28;20110;-73
2023/02/14 01:03:37;;;;;;;50.03;22.98;;;6.60;99.90;;;;;;4997497;28;20421;-73
2023/02/14 01:06:04;;;;;;;47.88;22.67;;;6.70;99.90;;;;;;4980890;28;20023;-73
2023/02/14 01:08:30;;;;;;;54.20;21.73;;;6.70;99.90;;;;;;4980195;28;20105;-74
2023/02/14 01:10:56;;;;;;;47.40;22.85;;;6.70;99.90;;;;;;4997865;28;20149;-74
2023/02/14 01:13:22;;;;;;;47.83;22.05;;;6.70;99.90;;;;;;4979722;28;20088;-74
2023/02/14 01:15:50;;;;;;;49.20;22.27;;;6.70;99.90;;;;;;4996560;28;20026;-74
2023/02/14 01:18:17;;;;;;;44.75;21.92;;;6.70;99.90;;;;;;4979676;28;20041;-74
2023/02/14 01:20:43;;;;;;;45.80;22.70;;;6.70;99.90;;;;;;4979068;28;20038;-73
2023/02/14 01:23:10;;;;;;;46.72;21.95;;;6.60;99.90;;;;;;4980906;28;20030;-74
2023/02/14 01:25:37;;;;;;;53.33;23.60;;;6.60;99.90;;;;;;4976751;28;20034;-74
2023/02/14 01:28:03;;;;;;;53.25;23.95;;;6.70;99.90;;;;;;4995931;28;20088;-74
2023/02/14 01:30:29;;;;;;;47.67;22.10;;;6.60;99.90;;;;;;4979828;28;20201;-74
2023/02/14 01:32:55;;;;;;;49.50;22.42;;;6.60;99.90;;;;;;4997108;28;20520;-73
2023/02/14 01:35:20;;;;;;;48.47;23.25;;;6.60;99.90;;;;;;4992584;28;20117;-74
2023/02/14 01:37:46;;;;;;;48.17;22.77;;;6.60;99.90;;;;;;4980075;28;20486;-74
2023/02/14 01:40:13;;;;;;;48.58;23.15;;;6.60;99.90;;;;;;4977519;28;20221;-73
2023/02/14 01:42:39;;;;;;;47.83;24.83;;;6.60;99.90;;;;;;4981246;28;20026;-74
2023/02/14 01:45:25;;;;;;;45.75;23.08;;;6.60;99.90;;;;;;4997004;28;20038;-75
2023/02/14 01:47:54;;;;;;;51.03;24.08;;;6.60;99.90;;;;;;4935607;28;20105;-75
2023/02/14 01:50:26;;;;;;;50.33;23.60;;;6.60;99.90;;;;;;4915004;29;20051;-75
2023/02/14 01:52:57;;;;;;;51.03;24.73;;;6.60;99.90;;;;;;4921491;29;20048;-75
2023/02/14 01:55:26;;;;;;;;;;;6.60;99.90;;;;;;4932518;29;20062;-75
2023/02/14 01:58:23;;;;;;;50.50;22.75;;;6.50;99.90;;;;;;4917447;29;19961;-75
2023/02/14 02:00:55;;;;;;;45.83;21.33;;;6.60;99.90;;;;;;4915934;29;20115;-75
2023/02/14 02:03:25;;;;;;;46.92;23.02;;;6.50;99.90;;;;;;4932934;29;20411;-74
2023/02/14 02:05:56;;;;;;;53.30;24.23;;;6.60;99.90;;;;;;4920395;29;20032;-74
2023/02/14 02:08:22;;;;;;;49.60;23.98;;;6.60;99.90;;;;;;4934912;29;20062;-73
2023/02/14 02:10:48;;;;;;;50.58;24.20;;;6.60;99.90;;;;;;4932717;29;20032;-73
2023/02/14 02:13:17;;;;;;;50.53;24.58;;;6.50;99.90;;;;;;4900383;29;20083;-73
2023/02/14 02:16:27;;;;;;;49.72;24.33;;;6.50;99.90;;;;;;4931691;29;20027;-73
2023/02/14 02:19:14;;;;;;;54.90;24.70;;;6.50;99.90;;;;;;4909701;29;20043;-73
2023/02/14 02:22:09;;;;;;;52.30;25.17;;;6.50;99.90;;;;;;4912781;29;20046;-73
2023/02/14 02:25:09;;;;;;;52.67;24.92;;;6.50;99.90;;;;;;4943394;28;20053;-74
2023/02/14 02:27:45;;;;;;;53.22;26.25;;;6.50;99.90;;;;;;4984643;28;20018;-74
2023/02/14 02:30:37;;;;;;;49.85;23.90;;;6.40;99.90;;;;;;4974116;28;20057;-73
2023/02/14 02:33:33;;;;;;;57.25;25.10;;;6.50;99.90;;;;;;4989817;28;20034;-73
2023/02/14 02:36:22;;;;;;;49.92;24.10;;;6.40;99.90;;;;;;4977160;28;20022;-73
2023/02/14 02:38:53;;;;;;;54.33;25.02;;;6.40;99.90;;;;;;4980451;28;20035;-75
2023/02/14 02:41:44;;;;;;;51.28;24.23;;;6.40;99.90;;;;;;4987851;28;20030;-74
2023/02/14 02:44:47;;;;;;;51.13;24.35;;;6.40;99.90;;;;;;4988330;28;20652;-75
2023/02/14 02:47:30;;;;;;;52.75;24.92;;;6.40;99.90;;;;;;4971425;28;20598;-75
2023/02/14 02:53:18;;;;;;;53.67;24.92;;;6.40;99.90;;;;;;4973869;28;20034;-75
2023/02/14 02:58:56;;;;;;;51.60;23.63;;;6.40;99.90;;;;;;4966889;28;20060;-75
2023/02/14 03:01:38;;;;;;;50.55;23.98;;;6.40;99.90;;;;;;4973019;28;20030;-74
2023/02/14 03:06:57;;;;;;;57.97;27.13;;;6.30;99.90;;;;;;4977637;28;20033;-74
2023/02/14 03:09:26;;;;;;;59.72;26.10;;;6.30;99.90;;;;;;4978313;28;20034;-73
2023/02/14 03:12:05;;;;;;;54.58;25.80;;;6.30;99.90;;;;;;4993885;28;20034;-73
2023/02/14 03:14:38;;;;;;;58.47;26.50;;;6.30;99.90;;;;;;4974092;28;20022;-73
2023/02/14 03:17:23;;;;;;;53.35;23.77;;;6.20;99.90;;;;;;4978097;28;20042;-74
2023/02/14 03:20:14;;;;;;;49.60;24.35;;;6.20;99.90;;;;;;4976244;28;20031;-74
2023/02/14 03:23:03;;;;;;;51.95;24.50;;;6.30;99.90;;;;;;4974480;28;20058;-73
2023/02/14 03:25:40;;;;;;;53.50;25.15;;;6.30;99.90;;;;;;4969141;28;20517;-73
2023/02/14 03:28:25;;;;;;;58.53;26.08;;;6.20;99.90;;;;;;4993204;28;21510;-73
2023/02/14 03:31:13;;;;;;;48.17;23.33;;;6.30;99.90;;;;;;4975018;28;20030;-73
2023/02/14 03:33:42;;;;;;;54.00;24.75;;;6.30;99.90;;;;;;4973844;28;20053;-73
2023/02/14 03:36:38;;;;;;;51.00;24.50;;;6.30;99.90;;;;;;4962695;28;20026;-73
2023/02/14 03:39:11;;;;;;;48.40;23.83;;;6.30;99.90;;;;;;4977127;28;20032;-73
2023/02/14 03:41:43;;;;;;;55.97;25.70;;;6.30;99.90;;;;;;4972934;28;20030;-72
2023/02/14 03:44:11;;;;;;;51.72;23.92;;;6.30;99.90;;;;;;4976862;28;20038;-73
2023/02/14 03:47:02;;;;;;;57.22;26.75;;;6.30;99.90;;;;;;4997738;28;20038;-73
2023/02/14 03:49:33;;;;;;;52.08;23.58;;;6.20;99.90;;;;;;4991495;28;20106;-74
2023/02/14 03:52:01;;;;;;;56.08;24.65;;;6.20;99.90;;;;;;4976689;28;20102;-73
2023/02/14 03:54:31;;;;;;;55.65;25.80;;;6.20;99.90;;;;;;4992539;28;20045;-74
2023/02/14 03:57:19;;;;;;;56.08;26.05;;;6.30;99.90;;;;;;4993780;28;20042;-73
2023/02/14 03:59:45;;;;;;;57.95;25.63;;;6.30;99.90;;;;;;4976824;28;20108;-73
2023/02/14 04:02:17;;;;;;;53.30;25.70;;;6.20;99.90;;;;;;4993231;28;20033;-74
2023/02/14 04:04:46;;;;;;;52.03;25.33;;;6.20;99.90;;;;;;4961732;28;20053;-74
2023/02/14 04:07:15;;;;;;;55.05;24.52;;;6.20;99.90;;;;;;4983768;28;20034;-74
2023/02/14 04:09:41;;;;;;;54.95;25.95;;;6.30;99.90;;;;;;4979678;28;20032;-74
2023/02/14 04:12:07;;;;;;;55.17;25.38;;;6.30;99.90;;;;;;4995945;28;20490;-73
2023/02/14 04:14:33;;;;;;;53.40;25.10;;;6.20;99.90;;;;;;4994948;28;20042;-74
2023/02/14 04:19:43;;;;;;;53.58;25.92;;;6.20;99.90;;;;;;4997178;28;20490;-73
2023/02/14 04:22:09;;;;;;;54.45;25.77;;;6.30;99.90;;;;;;4999349;28;20056;-73
2023/02/14 04:24:35;;;;;;;53.15;24.75;;;6.30;99.90;;;;;;4978807;28;20126;-74
2023/02/14 04:27:10;;;;;;;54.20;25.50;;;6.30;99.90;;;;;;4998470;28;20033;-72
2023/02/14 04:29:49;;;;;;;59.70;25.35;;;6.30;99.90;;;;;;4996582;28;20036;-74
2023/02/14 04:32:19;;;;;;;56.88;25.58;;;6.30;99.90;;;;;;4993492;28;21715;-73
2023/02/14 04:34:45;;;;;;;55.47;26.20;;;6.30;99.90;;;;;;4975999;28;20088;-73
2023/02/14 04:37:12;;;;;;;59.00;24.88;;;6.20;99.90;;;;;;4981203;28;20025;-74
2023/02/14 04:39:38;;;;;;;56.30;25.13;;;6.20;99.90;;;;;;4978339;28;20030;-73
2023/02/14 04:42:04;;;;;;;56.72;27.17;;;6.30;99.90;;;;;;4980772;28;20084;-74
2023/02/14 04:44:32;;;;;;;55.00;26.48;;;6.30;99.90;;;;;;4957871;28;20397;-73
2023/02/14 04:46:59;;;;;;;52.35;25.15;;;6.30;99.90;;;;;;4997561;28;20517;-74
2023/02/14 04:49:25;;;;;;;58.45;26.67;;;6.30;99.90;;;;;;4981789;28;20034;-74
2023/02/14 04:51:50;;;;;;;55.25;25.30;;;6.30;99.90;;;;;;4994349;28;20026;-74
2023/02/14 04:54:16;;;;;;;60.42;27.77;;;6.30;99.90;;;;;;4979901;28;20068;-73
2023/02/14 04:56:42;;;;;;;53.08;24.70;;;6.30;99.90;;;;;;4980035;28;20028;-74
2023/02/14 04:59:07;;;;;;;57.67;24.58;;;6.40;99.90;;;;;;4981666;28;20081;-74
2023/02/14 05:01:33;;;;;;;57.60;26.23;;;6.30;99.90;;;;;;4977573;28;20120;-73
2023/02/14 05:03:59;;;;;;;53.47;25.15;;;6.30;99.90;;;;;;4981060;28;20037;-73
2023/02/14 05:06:25;;;;;;;51.20;25.20;;;6.30;99.90;;;;;;5000039;28;20046;-73
2023/02/14 05:08:50;;;;;;;55.40;25.13;;;6.40;99.90;;;;;;4978193;28;20019;-73
2023/02/14 05:11:16;;;;;;;51.83;24.50;;;6.30;99.90;;;;;;4994857;28;20084;-73
2023/02/14 05:13:42;;;;;;;60.88;25.85;;;6.30;99.90;;;;;;4979038;28;20468;-73
2023/02/14 05:16:07;;;;;;;58.80;25.27;;;6.30;99.90;;;;;;4977192;28;20034;-73
2023/02/14 05:18:33;;;;;;;51.72;24.60;;;6.30;99.90;;;;;;4994024;28;20022;-73
2023/02/14 05:20:59;;;;;;;52.35;24.35;;;6.30;99.90;;;;;;4995823;28;20038;-73
2023/02/14 05:23:25;;;;;;;56.17;24.70;;;6.30;99.90;;;;;;4978477;28;20105;-74
2023/02/14 05:25:51;;;;;;;57.10;26.02;;;6.30;99.90;;;;;;4975347;28;20029;-73
2023/02/14 05:28:20;;;;;;;51.63;23.77;;;6.30;99.90;;;;;;4969828;28;20025;-73
2023/02/14 05:30:46;;;;;;;53.78;24.83;;;6.30;99.90;;;;;;4989838;28;20033;-73
2023/02/14 05:33:11;;;;;;;52.17;24.33;;;6.30;99.90;;;;;;4988886;28;20034;-73
2023/02/14 05:35:37;;;;;;;58.15;25.27;;;6.30;99.90;;;;;;4983833;28;20030;-73
2023/02/14 05:38:03;;;;;;;56.22;25.15;;;6.40;99.90;;;;;;4989190;28;20038;-73
2023/02/14 05:40:29;;;;;;;58.00;26.02;;;6.40;99.90;;;;;;4971347;28;20030;-74
2023/02/14 05:42:55;;;;;;;49.85;23.77;;;6.40;99.90;;;;;;4975925;28;20031;-73
2023/02/14 05:45:22;;;;;;;51.90;23.40;;;6.30;99.90;;;;;;4966862;28;20053;-73
2023/02/14 05:47:48;;;;;;;54.85;23.60;;;6.30;99.90;;;;;;4978371;28;20722;-71
2023/02/14 05:50:15;;;;;;;56.28;23.88;;;6.30;99.90;;;;;;4994203;28;20150;-73
2023/02/14 05:52:42;;;;;;;53.42;24.33;;;6.30;99.90;;;;;;4974992;28;20027;-73
2023/02/14 05:55:09;;;;;;;53.45;23.95;;;6.30;99.90;;;;;;4960121;28;20124;-74
2023/02/14 05:57:34;;;;;;;53.22;23.70;;;6.30;99.90;;;;;;4955258;28;20030;-74
2023/02/14 06:00:00;;;;;;;55.13;25.38;;;6.30;99.90;;;;;;4991214;28;20030;-72
2023/02/14 06:02:26;;;;;;;56.13;25.00;;;6.30;99.90;;;;;;4990995;28;20026;-73
2023/02/14 06:04:52;;;;;;;56.40;24.83;;;6.40;99.90;;;;;;4974506;28;20121;-74
2023/02/14 06:07:18;;;;;;;51.08;24.48;;;6.30;99.90;;;;;;4991208;28;20123;-73
2023/02/14 06:09:43;;;;;;;59.50;24.13;;;6.40;99.90;;;;;;4973925;28;20030;-73
2023/02/14 06:12:09;;;;;;;56.55;24.83;;;6.30;99.90;;;;;;4995020;28;20169;-74
2023/02/14 06:14:35;;;;;;;53.65;24.00;;;6.40;99.90;;;;;;4968504;28;20649;-72
2023/02/14 06:17:03;;;;;;;55.30;24.55;;;6.40;99.90;;;;;;4971585;28;20105;-72
2023/02/14 06:19:29;;;;;;;53.28;25.05;;;6.30;99.90;;;;;;4990685;28;20029;-73
2023/02/14 06:21:54;;;;;;;50.70;23.48;;;6.30;99.90;;;;;;4990159;28;20104;-73
2023/02/14 06:24:20;;;;;;;54.97;23.90;;;6.30;99.90;;;;;;4983335;28;20039;-73
2023/02/14 06:26:46;;;;;;;53.60;24.63;;;6.30;99.90;;;;;;4975358;28;20055;-72
2023/02/14 06:29:12;;;;;;;48.58;22.67;;;6.30;99.90;;;;;;4984161;28;20033;-72
2023/02/14 06:31:39;;;;;;;51.10;24.08;;;6.40;99.90;;;;;;4971237;28;20026;-71
2023/02/14 06:34:04;;;;;;;47.75;21.75;;;6.30;99.90;;;;;;4980154;28;20034;-73
2023/02/14 06:36:30;;;;;;;48.58;22.60;;;6.40;99.90;;;;;;4991496;28;20034;-76
2023/02/14 06:38:56;;;;;;;54.33;25.45;;;6.40;99.90;;;;;;4975904;28;20034;-74
2023/02/14 06:41:22;;;;;;;48.67;22.23;;;6.40;99.90;;;;;;4977575;28;20030;-72
2023/02/14 06:43:48;;;;;;;46.40;21.30;;;6.40;99.90;;;;;;4974461;28;20030;-72
2023/02/14 06:46:14;;;;;;;49.67;22.40;;;6.40;99.90;;;;;;4987636;28;20102;-72
2023/02/14 06:48:40;;;;;;;44.88;21.90;;;6.40;99.90;;;;;;4976734;28;20838;-72
2023/02/14 06:51:07;;;;;;;49.70;23.02;;;6.40;99.90;;;;;;4992858;28;20038;-72
2023/02/14 06:53:33;;;;;;;50.22;23.20;;;6.40;99.90;;;;;;4970022;28;20029;-71
2023/02/14 06:55:59;;;;;;;46.70;22.75;;;6.40;99.90;;;;;;4987220;28;20033;-72
2023/02/14 06:58:26;;;;;;;45.88;21.17;;;6.40;99.90;;;;;;4987245;28;20042;-73
2023/02/14 07:00:54;;;;;;;47.17;22.70;;;6.40;99.90;;;;;;4977738;28;20041;-73
2023/02/14 07:03:20;;;;;;;43.63;20.60;;;6.30;99.90;;;;;;4993419;28;20041;-74
2023/02/14 07:05:46;;;;;;;47.75;22.75;;;6.40;99.90;;;;;;4973773;28;23032;-73
2023/02/14 07:08:13;;;;;;;51.45;21.38;;;6.30;99.90;;;;;;4990046;28;20101;-73
2023/02/14 07:10:39;;;;;;;46.25;21.25;;;6.40;99.90;;;;;;4994336;28;20026;-73
2023/02/14 07:13:05;;;;;;;41.28;20.02;;;6.40;99.90;;;;;;4959112;28;20040;-73
2023/02/14 07:15:31;;;;;;;43.85;20.30;;;6.40;99.90;;;;;;4984965;28;20031;-73
2023/02/14 07:17:57;;;;;;;42.28;20.38;;;6.40;99.90;;;;;;4968773;28;20379;-74
2023/02/14 07:20:24;;;;;;;42.03;20.08;;;6.50;99.90;;;;;;4948595;28;20605;-73
2023/02/14 07:22:50;;;;;;;39.35;19.40;;;6.50;99.90;;;;;;4964081;28;20049;-73
2023/02/14 07:25:16;;;;;;;44.88;20.63;;;6.50;99.90;;;;;;4996025;28;20807;-73
2023/02/14 07:27:41;;;;;;;40.85;19.10;;;6.50;99.90;;;;;;4977808;28;20490;-73
2023/02/14 07:30:09;;;;;;;37.75;18.45;;;6.50;99.90;;;;;;4975090;28;20050;-74
2023/02/14 07:32:37;;;;;;;43.83;20.08;;;6.50;99.90;;;;;;4974017;28;20502;-73
2023/02/14 07:35:03;;;;;;;42.58;20.33;;;6.50;99.90;;;;;;4959190;28;20038;-74
2023/02/14 07:37:31;;;;;;;38.25;19.40;;;6.50;99.90;;;;;;4961392;28;20464;-74
2023/02/14 07:39:57;;;;;;;36.53;18.23;;;6.50;99.90;;;;;;4977207;28;20045;-75
2023/02/14 07:42:23;;;;;;;46.35;20.38;;;6.50;99.90;;;;;;4982208;28;20027;-73
2023/02/14 07:44:49;;;;;;;44.90;18.38;;;6.50;99.90;;;;;;4984050;28;20030;-74
2023/02/14 07:47:15;;;;;;;35.72;18.83;;;6.50;99.90;;;;;;5001224;28;20058;-74
2023/02/14 07:49:41;;;;;;;37.85;19.35;;;6.60;99.90;;;;;;4980142;28;20054;-76
2023/02/14 07:52:07;;;;;;;36.60;17.30;;;6.60;99.90;;;;;;4983138;28;20069;-73
2023/02/14 07:54:33;;;;;;;34.90;17.98;;;6.60;99.90;;;;;;4982994;28;20033;-73
2023/02/14 07:56:59;;;;;;;35.40;17.50;;;6.70;99.90;;;;;;4962663;28;20038;-74
2023/02/14 07:59:24;;;;;;;35.28;17.35;;;6.70;99.90;;;;;;4964912;28;20026;-75
2023/02/14 08:01:51;;;;;;;31.80;16.70;;;6.70;99.90;;;;;;4984503;28;20065;-72
2023/02/14 08:04:16;;;;;;;34.92;17.75;;;6.70;99.90;;;;;;4999326;28;20120;-73
2023/02/14 08:06:42;;;;;;;34.88;17.10;;;6.70;99.90;;;;;;4996152;28;20473;-75
2023/02/14 08:09:09;;;;;;;33.97;18.42;;;6.80;99.90;;;;;;4966781;28;20079;-75
2023/02/14 08:14:21;;;;;;;37.85;17.75;;;6.80;99.90;;;;;;5000773;28;20549;-74
2023/02/14 08:16:47;;;;;;;35.20;18.23;;;6.70;99.90;;;;;;5000574;28;20037;-74
2023/02/14 08:19:12;;;;;;;40.88;18.88;;;6.60;99.90;;;;;;4981771;28;20161;-74
2023/02/14 08:21:38;;;;;;;33.70;18.20;;;6.60;99.90;;;;;;4979264;28;20056;-75
2023/02/14 08:24:04;;;;;;;36.60;18.27;;;6.60;99.90;;;;;;4982742;28;20084;-75
2023/02/14 08:26:31;;;;;;;33.25;16.83;;;6.50;99.90;;;;;;4985075;28;20026;-73
2023/02/14 08:28:57;;;;;;;35.78;18.00;;;6.60;99.90;;;;;;4979015;28;20033;-75
2023/02/14 08:31:25;;;;;;;37.78;18.05;;;6.60;99.90;;;;;;4979990;28;20027;-74
2023/02/14 08:33:50;;;;;;;37.20;19.50;;;6.60;99.90;;;;;;4967934;28;20117;-77
2023/02/14 08:36:16;;;;;;;35.22;17.30;;;6.60;99.90;;;;;;5002211;28;20737;-75
2023/02/14 08:38:46;;;;;;;34.97;19.00;;;6.60;99.90;;;;;;4981381;28;20025;-74
2023/02/14 08:41:16;;;;;;;32.35;17.35;;;6.60;99.90;;;;;;4998931;28;20084;-74
2023/02/14 08:43:43;;;;;;;36.20;18.00;;;6.60;99.90;;;;;;4996222;28;20034;-75
2023/02/14 08:46:11;;;;;;;34.30;17.80;;;6.70;99.90;;;;;;4965989;28;20198;-74
2023/02/14 08:48:37;;;;;;;32.88;17.80;;;6.70;99.90;;;;;;4992881;28;20030;-73
2023/02/14 08:51:08;;;;;;;36.72;18.42;;;6.70;99.90;;;;;;4982666;28;20034;-76
2023/02/14 08:53:34;;;;;;;35.80;17.55;;;6.70;99.90;;;;;;4962895;28;20521;-73
2023/02/14 08:56:05;;;;;;;33.10;16.60;;;6.70;99.90;;;;;;4972237;28;20038;-74
2023/02/14 08:58:31;;;;;;;36.42;18.17;;;6.70;99.90;;;;;;4974506;28;20039;-74
2023/02/14 09:00:57;;;;;;;30.52;15.65;;;6.70;99.90;;;;;;4983094;28;20034;-73
2023/02/14 09:03:23;;;;;;;35.83;18.00;;;6.80;99.90;;;;;;4994687;28;20085;-74
2023/02/14 09:05:52;;;;;;;30.90;16.35;;;6.80;99.90;;;;;;4961556;28;20026;-73
2023/02/14 09:08:18;;;;;;;37.78;18.23;;;6.80;99.90;;;;;;4976879;28;20080;-74
2023/02/14 09:10:43;;;;;;;35.28;17.58;;;6.80;99.90;;;;;;4976868;28;20030;-74
2023/02/14 09:13:09;;;;;;;35.33;18.10;;;6.80;99.90;;;;;;4976240;28;20068;-74
2023/02/14 09:15:35;;;;;;;38.17;20.02;;;6.80;99.90;;;;;;4968805;28;20120;-74
2023/02/14 09:18:01;;;;;;;36.80;18.75;;;6.80;99.90;;;;;;4993461;28;20038;-74
2023/02/14 09:20:26;;;;;;;35.35;18.05;;;6.90;99.90;;;;;;4994312;28;20038;-73
2023/02/14 09:22:55;;;;;;;37.05;18.77;;;6.90;99.90;;;;;;4978349;28;20113;-73
2023/02/14 09:25:21;;;;;;;35.05;18.08;;;6.90;99.90;;;;;;4962911;28;20580;-74
2023/02/14 09:27:48;;;;;;;36.30;18.23;;;7.00;99.90;;;;;;4990727;28;20539;-74
2023/02/14 09:30:14;;;;;;;35.22;18.05;;;7.00;99.90;;;;;;4982253;28;20413;-73
2023/02/14 09:32:40;;;;;;;34.50;18.75;;;7.00;99.90;;;;;;4979657;28;20052;-74
2023/02/14 09:35:06;;;;;;;36.70;18.20;;;7.00;99.90;;;;;;4976436;28;20603;-74
2023/02/14 09:40:18;;;;;;;34.83;18.80;;;7.00;99.90;;;;;;4996271;28;20030;-75
2023/02/14 09:43:03;;;;;;;32.35;16.85;;;7.00;99.90;;;;;;4979027;28;20454;-75
2023/02/14 09:45:32;;;;;;;33.63;18.25;;;7.10;99.90;;;;;;4978370;28;20034;-73
2023/02/14 09:48:06;;;;;;;34.05;18.95;;;7.10;99.90;;;;;;4979051;28;20036;-73
2023/02/14 09:50:41;;;;;;;33.75;18.02;;;7.10;99.90;;;;;;4996641;28;20405;-72
2023/02/14 09:53:29;;;;;;;33.90;17.98;;;7.20;99.90;;;;;;4990836;28;20054;-73
2023/02/14 09:56:19;;;;;;;36.25;17.42;;;7.20;99.90;;;;;;4997502;28;20041;-74
2023/02/14 09:58:58;;;;;;;35.83;19.15;;;7.20;99.90;;;;;;4974274;28;20021;-73
2023/02/14 10:01:32;;;;;;;37.00;18.92;;;7.30;99.90;;;;;;4979041;28;20030;-74
2023/02/14 10:04:02;;;;;;;37.05;18.70;;;7.30;99.90;;;;;;4977649;28;20529;-74
2023/02/14 10:06:46;;;;;;;33.90;17.58;;;7.30;99.90;;;;;;4978323;28;20414;-73
2023/02/14 10:09:50;;;;;;;34.28;18.30;;;7.30;99.90;;;;;;4973841;28;20033;-76
2023/02/14 10:12:25;;;;;;;34.70;18.10;;;7.30;99.90;;;;;;4976013;28;20053;-71
2023/02/14 10:14:54;;;;;;;35.47;18.95;;;7.30;99.90;;;;;;4994459;28;20037;-73
2023/02/14 10:17:40;;;;;;;38.25;19.63;;;7.40;99.90;;;;;;4998726;28;20076;-73
2023/02/14 10:20:19;;;;;;;37.28;20.08;;;7.40;99.90;;;;;;4970157;28;20557;-73
2023/02/14 10:22:56;;;;;;;35.03;19.23;;;7.40;99.90;;;;;;4963291;28;20038;-74
2023/02/14 10:25:29;;;;;;;37.10;19.88;;;7.50;99.90;;;;;;4977199;28;20164;-74
2023/02/14 10:27:57;;;;;;;35.47;19.02;;;7.50;99.90;;;;;;4982375;28;20037;-74
2023/02/14 10:30:23;;;;;;;35.55;18.73;;;7.50;99.90;;;;;;4976588;28;20021;-74
2023/02/14 10:33:04;;;;;;;35.47;19.08;;;7.60;99.90;;;;;;4988897;28;20560;-74
2023/02/14 10:35:57;;;;;;;37.00;18.75;;;7.60;99.90;;;;;;4996006;28;20897;-74
2023/02/14 10:38:32;;;;;;;38.33;18.95;;;7.60;99.90;;;;;;4976082;28;20081;-74
2023/02/14 10:40:58;;;;;;;34.70;19.55;;;7.60;99.90;;;;;;4975683;28;20034;-74
2023/02/14 10:43:34;;;;;;;35.65;19.35;;;7.70;99.90;;;;;;4996707;28;20037;-74
2023/02/14 10:46:17;;;;;;;38.85;19.00;;;7.70;99.90;;;;;;4975148;28;20383;-75
2023/02/14 10:48:59;;;;;;;35.58;18.67;;;7.80;99.90;;;;;;4959505;28;20025;-73
2023/02/14 10:51:44;;;;;;;39.60;19.80;;;7.80;99.90;;;;;;4960078;28;20498;-73
2023/02/14 10:54:36;;;;;;;34.47;19.02;;;7.90;99.90;;;;;;4996589;28;20037;-75
2023/02/14 10:57:37;;;;;;;31.83;17.25;;;8.10;99.90;;;;;;4974941;28;20036;-74
2023/02/14 11:00:06;;;;;;;35.38;18.90;;;8.30;99.90;;;;;;4948835;28;20042;-75
2023/02/14 11:02:36;;;;;;;36.30;18.48;;;8.70;99.90;;;;;;4996394;28;20042;-75
2023/02/14 11:05:04;;;;;;;33.92;18.23;;;9.50;99.90;;;;;;4996412;28;20092;-75
2023/02/14 11:07:30;;;;;;;27.85;16.83;;;10.80;99.90;;;;;;4974372;28;20225;-75
2023/02/14 11:09:56;;;;;;;31.17;17.98;;;12.10;99.90;;;;;;4970984;28;20030;-74
2023/02/14 11:12:40;;;;;;;26.38;17.23;;;13.20;99.90;;;;;;4973997;28;20568;-74
2023/02/14 11:15:34;;;;;;;28.92;17.45;;;13.90;99.90;;;;;;4968602;28;20038;-74
2023/02/14 11:18:21;;;;;;;27.15;17.42;;;15.00;99.70;;;;;;4996846;28;20077;-74
2023/02/14 11:21:08;;;;;;;25.17;15.73;;;15.80;96.20;;;;;;4994867;28;20038;-74
2023/02/14 11:23:37;;;;;;;23.75;16.77;;;15.60;92.10;;;;;;4996047;28;20059;-74
2023/02/14 11:26:28;;;;;;;26.08;17.65;;;14.80;95.10;;;;;;4977741;28;20061;-74
2023/02/14 11:28:56;;;;;;;29.75;20.23;;;14.80;93.00;;;;;;4978802;28;20030;-74
2023/02/14 11:31:33;;;;;;;26.98;18.40;;;13.30;97.30;;;;;;4996171;28;20034;-73
2023/02/14 11:34:00;;;;;;;27.95;17.92;;;13.00;99.90;;;;;;4981718;28;20122;-74
2023/02/14 11:36:28;;;;;;;24.38;16.60;;;12.90;99.90;;;;;;4980515;28;20113;-74
2023/02/14 11:39:01;;;;;;;32.00;19.48;;;12.70;99.90;;;;;;4980112;28;20958;-74
2023/02/14 11:41:49;;;;;;;28.58;18.88;;;12.40;99.90;;;;;;4995068;28;20146;-74
2023/02/14 11:44:22;;;;;;;31.95;20.58;;;12.10;99.90;;;;;;5001378;28;20026;-74
2023/02/14 11:46:50;;;;;;;30.98;20.65;;;11.50;99.90;;;;;;4978187;28;20056;-74
2023/02/14 11:49:31;;;;;;;33.03;19.45;;;11.10;99.90;;;;;;4986362;28;20018;-74
2023/02/14 11:52:07;;;;;;;29.70;19.17;;;10.70;99.90;;;;;;4993394;28;20034;-75
2023/02/14 11:54:35;;;;;;;34.63;21.70;;;10.70;99.90;;;;;;4993637;28;20120;-74
2023/02/14 11:57:04;;;;;;;31.92;20.13;;;10.40;99.90;;;;;;4970300;28;20089;-74
2023/02/14 11:59:52;;;;;;;33.45;20.48;;;10.30;99.90;;;;;;4960183;28;20037;-75
2023/02/14 12:02:26;;;;;;;37.88;21.63;;;10.00;99.90;;;;;;4987495;28;20035;-74
2023/02/14 12:05:05;;;;;;;38.97;20.58;;;9.90;99.90;;;;;;4996045;28;20559;-73
2023/02/14 12:07:38;;;;;;;45.78;22.00;;;9.90;99.90;;;;;;4978112;28;20033;-73
2023/02/14 12:10:15;;;;;;;35.20;19.75;;;9.70;99.90;;;;;;4965810;28;20449;-75
2023/02/14 12:12:57;;;;;;;40.38;21.10;;;9.70;99.90;;;;;;4978283;28;20088;-72
2023/02/14 12:15:36;;;;;;;35.13;20.00;;;9.70;99.90;;;;;;4974349;28;20041;-74
2023/02/14 12:18:16;;;;;;;34.35;20.40;;;9.60;99.90;;;;;;4975868;28;20050;-74
2023/02/14 12:20:59;;;;;;;33.08;19.42;;;9.60;99.90;;;;;;4977972;28;20025;-73
2023/02/14 12:23:39;;;;;;;37.70;20.65;;;9.50;99.90;;;;;;4973869;28;20487;-76
2023/02/14 12:26:31;;;;;;;35.20;19.90;;;9.40;99.90;;;;;;4995695;28;20030;-74
2023/02/14 12:29:25;;;;;;;37.35;20.42;;;9.40;99.90;;;;;;4959096;28;20030;-74
2023/02/14 12:31:52;;;;;;;35.72;19.10;;;9.50;99.90;;;;;;4998312;28;20156;-75
2023/02/14 12:34:19;;;;;;;37.75;20.27;;;9.40;99.90;;;;;;4996512;28;20561;-74
2023/02/14 12:37:18;;;;;;;40.83;20.92;;;9.40;99.90;;;;;;4992991;28;20064;-72
2023/02/14 12:40:08;;;;;;;36.00;20.25;;;9.30;99.90;;;;;;4995399;28;20095;-73
2023/02/14 12:42:43;;;;;;;39.67;21.90;;;9.30;99.90;;;;;;4974170;28;20150;-73
2023/02/14 12:45:29;;;;;;;36.22;20.77;;;9.30;99.90;;;;;;4992485;28;20058;-73
2023/02/14 12:48:18;;;;;;;33.40;19.17;;;9.30;99.90;;;;;;4975362;28;20038;-73
2023/02/14 12:50:52;;;;;;;36.42;20.70;;;9.30;99.90;;;;;;4975796;28;20545;-74
2023/02/14 12:53:42;;;;;;;35.67;19.00;;;9.20;99.90;;;;;;4979205;28;20952;-74
2023/02/14 12:56:34;;;;;;;41.00;20.92;;;9.20;99.90;;;;;;4958100;28;20417;-73
2023/02/14 12:59:24;;;;;;;36.58;19.85;;;9.20;99.90;;;;;;4994573;28;20031;-73
2023/02/14 13:02:00;;;;;;;33.85;18.58;;;9.20;99.90;;;;;;4982340;28;20628;-73
2023/02/14 13:04:52;;;;;;;39.97;20.27;;;9.20;99.90;;;;;;4982083;28;20034;-73
2023/02/14 13:07:37;;;;;;;35.80;19.98;;;9.30;99.90;;;;;;4979986;28;20030;-74
2023/02/14 13:10:33;;;;;;;34.92;18.75;;;9.20;99.90;;;;;;4995564;28;20033;-73
2023/02/14 13:13:28;;;;;;;33.67;17.92;;;9.30;99.90;;;;;;4979332;28;20498;-75
2023/02/14 13:16:06;;;;;;;35.83;18.50;;;9.30;99.90;;;;;;4965187;28;20026;-74
2023/02/14 13:18:42;;;;;;;31.95;18.80;;;9.30;99.90;;;;;;4961247;28;20041;-72
2023/02/14 13:21:12;;;;;;;34.63;19.02;;;9.30;99.90;;;;;;4992537;28;21090;-73